Time;durP1;ratioP1;P1;durP2;ratioP2;P2;SDS_P1;SDS_P2;PMS_P1;PMS_P2;Temp;Humidity;BMP_temperature;BMP_pressure;BME280_temperature;BME280_humidity;BME280_pressure;Samples;Min_cycle;Max_cycle;Signal;HPM_P1;HPM_P2
2022/05/18 00:01:00;;;;;;;7.90;2.47;;;18.20;99.90;;;;;;5018041;28;20136;-69
2022/05/18 00:03:29;;;;;;;5.68;2.58;;;18.20;99.90;;;;;;5021966;28;20065;-69
2022/05/18 00:05:55;;;;;;;6.10;2.40;;;18.20;99.90;;;;;;5025467;28;20121;-69
2022/05/18 00:08:21;;;;;;;3.60;2.30;;;18.10;99.90;;;;;;5021778;28;20108;-69
2022/05/18 00:10:49;;;;;;;4.32;2.58;;;18.10;99.90;;;;;;5015781;28;20033;-69
2022/05/18 00:13:15;;;;;;;3.85;2.65;;;18.10;99.90;;;;;;5019268;28;20045;-69
2022/05/18 00:15:42;;;;;;;3.90;2.55;;;18.00;99.90;;;;;;5010681;28;20033;-69
2022/05/18 00:18:07;;;;;;;5.78;3.00;;;18.00;99.90;;;;;;5002335;28;20050;-70
2022/05/18 00:20:33;;;;;;;4.18;2.30;;;18.00;99.90;;;;;;5015427;28;20044;-69
2022/05/18 00:23:01;;;;;;;3.67;2.70;;;18.00;99.90;;;;;;5012415;28;20063;-69
2022/05/18 00:25:36;;;;;;;5.75;2.53;;;18.00;99.90;;;;;;5011156;28;20034;-69
2022/05/18 00:28:02;;;;;;;3.78;2.17;;;18.00;99.90;;;;;;5020134;28;20041;-70
2022/05/18 00:30:30;;;;;;;4.47;2.58;;;17.90;99.90;;;;;;5016097;28;20076;-70
2022/05/18 00:32:56;;;;;;;5.97;3.47;;;17.90;99.90;;;;;;5008175;28;20231;-70
2022/05/18 00:35:25;;;;;;;5.03;2.85;;;17.80;99.90;;;;;;5012947;28;20412;-70
2022/05/18 00:37:51;;;;;;;5.65;3.20;;;17.80;99.90;;;;;;5016747;28;20079;-69
2022/05/18 00:40:17;;;;;;;4.30;3.13;;;17.80;99.90;;;;;;5020241;28;20064;-70
2022/05/18 00:42:44;;;;;;;5.20;2.90;;;17.70;99.90;;;;;;5013396;28;20050;-70
2022/05/18 00:45:10;;;;;;;;;;;17.70;99.90;;;;;;5015631;28;20064;-69
2022/05/18 00:47:35;;;;;;;7.95;2.75;;;17.70;99.90;;;;;;5014831;28;19928;-69
2022/05/18 00:50:13;;;;;;;4.53;3.05;;;17.70;99.90;;;;;;5015650;28;20034;-70
2022/05/18 00:52:44;;;;;;;4.63;3.10;;;17.60;99.90;;;;;;5007706;28;20593;-69
2022/05/18 00:55:12;;;;;;;6.05;3.30;;;17.60;99.90;;;;;;5018162;28;20052;-69
2022/05/18 00:58:10;;;;;;;7.68;3.20;;;17.60;99.90;;;;;;5017064;28;20097;-69
2022/05/18 01:00:38;;;;;;;5.53;3.08;;;17.60;99.90;;;;;;5012494;28;20110;-69
2022/05/18 01:03:13;;;;;;;4.78;3.28;;;17.60;99.90;;;;;;5018461;28;20522;-69
2022/05/18 01:05:43;;;;;;;8.05;3.22;;;17.60;99.90;;;;;;5015850;28;20053;-69
2022/05/18 01:08:13;;;;;;;12.23;3.10;;;17.60;99.90;;;;;;5011548;28;20478;-69
2022/05/18 01:10:39;;;;;;;6.68;3.30;;;17.50;99.90;;;;;;5019029;22;20061;-70
2022/05/18 01:13:06;;;;;;;8.20;3.35;;;17.50;99.90;;;;;;4982265;28;20035;-71
2022/05/18 01:15:32;;;;;;;6.75;3.65;;;17.50;99.90;;;;;;5005749;28;20034;-71
2022/05/18 01:17:59;;;;;;;5.35;3.03;;;17.50;99.90;;;;;;5003699;28;20053;-71
2022/05/18 01:20:36;;;;;;;6.50;3.03;;;17.50;99.90;;;;;;5000194;28;20088;-71
2022/05/18 01:23:38;;;;;;;6.75;3.13;;;17.50;99.90;;;;;;5004068;28;20045;-71
2022/05/18 01:26:29;;;;;;;8.52;3.47;;;17.40;99.90;;;;;;4993739;28;20426;-70
2022/05/18 01:28:58;;;;;;;4.60;3.10;;;17.40;99.90;;;;;;5000120;28;20431;-71
2022/05/18 01:31:45;;;;;;;6.85;3.85;;;17.40;99.90;;;;;;4994083;28;20068;-71
2022/05/18 01:34:11;;;;;;;5.13;3.10;;;17.30;99.90;;;;;;4994809;28;20053;-71
2022/05/18 01:36:37;;;;;;;6.07;3.10;;;17.30;99.90;;;;;;5001116;28;20485;-71
2022/05/18 01:39:08;;;;;;;6.63;3.22;;;17.20;99.90;;;;;;4995514;28;20065;-70
2022/05/18 01:41:40;;;;;;;6.45;3.00;;;17.20;99.90;;;;;;5001378;28;20053;-71
2022/05/18 01:44:06;;;;;;;6.82;3.53;;;17.20;99.90;;;;;;5010006;28;20529;-71
2022/05/18 01:46:32;;;;;;;6.68;3.65;;;17.10;99.90;;;;;;5006193;28;20053;-70
2022/05/18 01:48:58;;;;;;;6.03;3.55;;;17.10;99.90;;;;;;4998358;28;20398;-71
2022/05/18 01:51:48;;;;;;;5.95;3.45;;;17.00;99.90;;;;;;5002969;28;20108;-70
2022/05/18 01:54:14;;;;;;;6.00;3.58;;;17.00;99.90;;;;;;5004093;28;20052;-71
2022/05/18 01:56:40;;;;;;;6.72;3.53;;;16.90;99.90;;;;;;5001208;28;20168;-70
2022/05/18 01:59:06;;;;;;;5.53;3.72;;;16.90;99.90;;;;;;5003745;28;20188;-70
2022/05/18 02:01:32;;;;;;;7.25;4.05;;;16.90;99.90;;;;;;5001720;28;20073;-70
2022/05/18 02:03:58;;;;;;;6.25;3.80;;;16.80;99.90;;;;;;5005755;28;20148;-70
2022/05/18 02:06:23;;;;;;;6.18;3.42;;;16.80;99.90;;;;;;5000180;28;20124;-71
2022/05/18 02:08:49;;;;;;;5.22;3.08;;;16.80;99.90;;;;;;5002338;28;20041;-71
2022/05/18 02:11:18;;;;;;;5.00;3.55;;;16.70;99.90;;;;;;4999130;28;20498;-71
2022/05/18 02:13:44;;;;;;;6.97;3.60;;;16.80;99.90;;;;;;5007204;28;20045;-70
2022/05/18 02:16:10;;;;;;;6.93;4.47;;;16.80;99.90;;;;;;5005736;28;20637;-70
2022/05/18 02:18:36;;;;;;;5.72;3.83;;;16.70;99.90;;;;;;4996577;28;20935;-70
2022/05/18 02:21:10;;;;;;;8.18;4.20;;;16.70;99.90;;;;;;5002500;28;20034;-70
2022/05/18 02:23:37;;;;;;;5.60;3.55;;;16.70;99.90;;;;;;5004126;28;20121;-70
2022/05/18 02:26:07;;;;;;;8.98;4.00;;;16.70;99.90;;;;;;5002726;28;20081;-71
2022/05/18 02:28:33;;;;;;;5.78;3.55;;;16.60;99.90;;;;;;5001823;28;20494;-70
2022/05/18 02:30:58;;;;;;;8.25;4.05;;;16.60;99.90;;;;;;5001675;28;20046;-71
2022/05/18 02:33:24;;;;;;;5.85;3.38;;;16.60;99.90;;;;;;4989378;28;20038;-71
2022/05/18 02:35:49;;;;;;;8.48;3.88;;;16.60;99.90;;;;;;5003965;28;20190;-71
2022/05/18 02:38:15;;;;;;;7.95;4.15;;;16.60;99.90;;;;;;5010382;28;20030;-70
2022/05/18 02:40:41;;;;;;;8.95;4.28;;;16.60;99.90;;;;;;5003994;28;20038;-70
2022/05/18 02:43:07;;;;;;;7.90;4.20;;;16.50;99.90;;;;;;4989803;28;20034;-70
2022/05/18 02:45:32;;;;;;;7.72;3.47;;;16.50;99.90;;;;;;4999792;28;20156;-70
2022/05/18 02:47:58;;;;;;;6.22;3.17;;;16.50;99.90;;;;;;5001490;28;20128;-71
2022/05/18 02:50:23;;;;;;;11.02;4.25;;;16.50;99.90;;;;;;5001106;28;20080;-71
2022/05/18 02:52:49;;;;;;;7.40;3.83;;;16.40;99.90;;;;;;4997339;28;20170;-71
2022/05/18 02:57:59;;;;;;;5.60;3.90;;;16.40;99.90;;;;;;4998565;28;20058;-71
2022/05/18 03:00:25;;;;;;;7.05;3.85;;;16.30;99.90;;;;;;4994651;28;20140;-70
2022/05/18 03:02:53;;;;;;;9.38;4.18;;;16.30;99.90;;;;;;5001514;28;20046;-71
2022/05/18 03:05:18;;;;;;;6.22;3.92;;;16.30;99.90;;;;;;5005983;28;20072;-71
2022/05/18 03:07:44;;;;;;;8.10;3.60;;;16.30;99.90;;;;;;5000724;28;20038;-71
2022/05/18 03:10:10;;;;;;;5.90;3.97;;;16.30;99.90;;;;;;5002524;28;20034;-70
2022/05/18 03:12:35;;;;;;;8.32;4.53;;;16.20;99.90;;;;;;4993499;28;20125;-70
2022/05/18 03:15:01;;;;;;;6.97;3.90;;;16.20;99.90;;;;;;4998015;28;20456;-71
2022/05/18 03:17:27;;;;;;;7.30;4.07;;;16.20;99.90;;;;;;4996387;28;20481;-70
2022/05/18 03:19:53;;;;;;;7.68;3.92;;;16.10;99.90;;;;;;5002443;28;20092;-70
2022/05/18 03:25:05;;;;;;;9.20;3.80;;;16.10;99.90;;;;;;4996602;28;20301;-70
2022/05/18 03:27:31;;;;;;;7.90;4.32;;;16.10;99.90;;;;;;4999761;28;20061;-70
2022/05/18 03:29:57;;;;;;;7.03;3.92;;;16.10;99.90;;;;;;5000890;28;20347;-70
2022/05/18 03:32:25;;;;;;;7.05;4.20;;;16.00;99.90;;;;;;4995328;28;20054;-71
2022/05/18 03:34:51;;;;;;;7.82;3.90;;;16.00;99.90;;;;;;4996066;28;20507;-70
2022/05/18 03:37:17;;;;;;;8.95;4.03;;;16.00;99.90;;;;;;4997921;28;20141;-70
2022/05/18 03:39:43;;;;;;;9.93;4.38;;;15.90;99.90;;;;;;5003495;28;20042;-70
2022/05/18 03:42:09;;;;;;;10.50;4.35;;;15.90;99.90;;;;;;5000854;28;20556;-70
2022/05/18 03:44:34;;;;;;;11.00;4.15;;;15.90;99.90;;;;;;4997604;28;20073;-70
2022/05/18 03:47:00;;;;;;;7.80;4.43;;;15.90;99.90;;;;;;4993624;28;20438;-70
2022/05/18 03:49:25;;;;;;;10.60;4.43;;;15.90;99.90;;;;;;5009636;28;20642;-70
2022/05/18 03:51:51;;;;;;;13.93;4.87;;;15.90;99.90;;;;;;5004675;28;20374;-70
2022/05/18 03:54:17;;;;;;;6.57;3.83;;;15.90;99.90;;;;;;4997777;28;20324;-70
2022/05/18 03:56:43;;;;;;;9.15;4.78;;;15.80;99.90;;;;;;5008540;28;20038;-70
2022/05/18 03:59:09;;;;;;;6.82;4.03;;;15.80;99.90;;;;;;4999300;28;20033;-68
2022/05/18 04:01:34;;;;;;;5.95;4.30;;;15.80;99.90;;;;;;5004667;28;20195;-67
2022/05/18 04:04:00;;;;;;;6.75;4.30;;;15.80;99.90;;;;;;4995822;28;20046;-68
2022/05/18 04:06:25;;;;;;;6.83;4.20;;;15.80;99.90;;;;;;5004770;28;20041;-68
2022/05/18 04:08:52;;;;;;;11.02;4.35;;;15.80;99.90;;;;;;5001527;28;20042;-68
2022/05/18 04:11:18;;;;;;;10.80;5.03;;;15.90;99.90;;;;;;5001106;28;20104;-68
2022/05/18 04:13:44;;;;;;;6.55;3.67;;;15.90;99.90;;;;;;5000227;28;20613;-67
2022/05/18 04:16:09;;;;;;;6.85;4.10;;;15.90;99.90;;;;;;4998405;28;20152;-68
2022/05/18 04:18:35;;;;;;;9.63;4.85;;;15.90;99.90;;;;;;4999612;28;20041;-68
2022/05/18 04:21:01;;;;;;;7.00;4.28;;;15.90;99.90;;;;;;5007948;28;20117;-67
2022/05/18 04:23:28;;;;;;;11.38;4.22;;;16.00;99.90;;;;;;5003715;28;20610;-67
2022/05/18 04:25:54;;;;;;;7.78;4.40;;;16.00;99.90;;;;;;4997439;28;20065;-67
2022/05/18 04:28:20;;;;;;;6.65;4.32;;;16.00;99.90;;;;;;5000764;28;20160;-68
2022/05/18 04:30:47;;;;;;;8.32;4.35;;;16.00;99.90;;;;;;5002277;28;20116;-67
2022/05/18 04:33:18;;;;;;;9.02;4.72;;;16.00;99.90;;;;;;4998133;28;20039;-67
2022/05/18 04:35:44;;;;;;;7.38;4.20;;;16.10;99.90;;;;;;5001990;28;20038;-68
2022/05/18 04:38:09;;;;;;;9.70;5.07;;;16.10;99.90;;;;;;4995822;28;20048;-68
2022/05/18 04:40:35;;;;;;;6.00;4.10;;;16.10;99.90;;;;;;4998884;28;20384;-67
2022/05/18 04:43:00;;;;;;;8.60;5.05;;;16.20;99.90;;;;;;5004123;28;20042;-68
2022/05/18 04:45:27;;;;;;;9.13;5.15;;;16.20;99.90;;;;;;4992962;28;20038;-67
2022/05/18 04:47:52;;;;;;;6.68;4.35;;;16.20;99.90;;;;;;4992881;28;20057;-68
2022/05/18 04:50:19;;;;;;;7.30;4.05;;;16.30;99.90;;;;;;5001219;28;20034;-67
2022/05/18 04:52:45;;;;;;;10.50;4.32;;;16.30;99.90;;;;;;4992110;28;20232;-68
2022/05/18 04:55:11;;;;;;;8.77;4.18;;;16.30;99.90;;;;;;5004486;28;20509;-67
2022/05/18 04:57:37;;;;;;;5.75;3.95;;;16.40;99.90;;;;;;5002365;28;20041;-68
2022/05/18 05:00:07;;;;;;;6.32;4.55;;;16.30;99.90;;;;;;5003440;28;20033;-67
2022/05/18 05:02:34;;;;;;;6.93;4.70;;;16.30;99.90;;;;;;4998984;28;20073;-68
2022/05/18 05:05:00;;;;;;;9.80;5.53;;;16.40;99.90;;;;;;5000344;28;20080;-68
2022/05/18 05:07:26;;;;;;;7.63;4.75;;;16.30;99.90;;;;;;5002802;28;20076;-67
2022/05/18 05:09:52;;;;;;;10.35;4.70;;;16.40;99.90;;;;;;5007354;28;20287;-67
2022/05/18 05:12:18;;;;;;;9.88;5.18;;;16.40;99.90;;;;;;5003879;28;20138;-67
2022/05/18 05:14:44;;;;;;;8.02;4.80;;;16.40;99.90;;;;;;4995076;28;20121;-68
2022/05/18 05:17:10;;;;;;;9.30;5.20;;;16.40;99.90;;;;;;5002906;28;20033;-67
2022/05/18 05:19:37;;;;;;;7.95;5.32;;;16.40;99.90;;;;;;5000678;28;20166;-67
2022/05/18 05:22:03;;;;;;;11.13;5.47;;;16.40;99.90;;;;;;5000835;28;20103;-67
2022/05/18 05:24:29;;;;;;;;;;;16.50;99.90;;;;;;5003051;28;20490;-67
2022/05/18 05:26:54;;;;;;;11.15;5.20;;;16.50;99.90;;;;;;4997749;28;19925;-67
2022/05/18 05:29:20;;;;;;;8.15;5.18;;;16.60;99.90;;;;;;5002686;28;20041;-68
2022/05/18 05:31:46;;;;;;;11.02;5.95;;;16.60;99.90;;;;;;4995131;28;20037;-67
2022/05/18 05:34:12;;;;;;;7.95;5.75;;;16.60;99.90;;;;;;4996382;28;20038;-67
2022/05/18 05:36:38;;;;;;;13.55;5.75;;;16.70;99.90;;;;;;5008101;28;20103;-68
2022/05/18 05:39:04;;;;;;;9.77;6.20;;;16.70;99.90;;;;;;4993303;28;20057;-67
2022/05/18 05:41:29;;;;;;;8.32;5.85;;;16.70;99.90;;;;;;5003107;28;20542;-74
2022/05/18 05:43:56;;;;;;;10.00;6.47;;;16.80;99.90;;;;;;4997826;28;20085;-70
2022/05/18 05:46:22;;;;;;;12.75;6.32;;;16.80;99.90;;;;;;5000106;28;20052;-72
2022/05/18 05:48:47;;;;;;;9.02;5.65;;;16.90;99.90;;;;;;4994818;28;20030;-68
2022/05/18 05:51:15;;;;;;;8.43;6.03;;;16.90;99.90;;;;;;5000698;28;20053;-67
2022/05/18 05:53:42;;;;;;;11.45;5.88;;;16.90;99.90;;;;;;5003013;28;20547;-68
2022/05/18 05:56:09;;;;;;;11.18;6.22;;;17.00;99.90;;;;;;5006970;28;20041;-68
2022/05/18 05:58:36;;;;;;;11.38;6.25;;;17.00;99.90;;;;;;5007797;28;20406;-68
2022/05/18 06:01:04;;;;;;;12.60;5.90;;;17.10;99.90;;;;;;5001559;28;20117;-67
2022/05/18 06:03:30;;;;;;;13.02;6.82;;;17.10;99.90;;;;;;5003127;28;20106;-68
2022/05/18 06:05:56;;;;;;;13.63;6.75;;;17.20;99.90;;;;;;5006922;28;20053;-68
2022/05/18 06:08:23;;;;;;;9.95;6.00;;;17.20;99.90;;;;;;4991698;28;20396;-71
2022/05/18 06:10:49;;;;;;;12.90;7.43;;;17.30;99.90;;;;;;5006961;28;20520;-68
2022/05/18 06:13:15;;;;;;;15.50;7.50;;;17.30;99.90;;;;;;5005291;28;20041;-67
2022/05/18 06:15:41;;;;;;;12.75;6.68;;;17.40;99.90;;;;;;4998794;28;20453;-68
2022/05/18 06:18:07;;;;;;;10.30;6.78;;;17.50;99.90;;;;;;4996766;28;20088;-68
2022/05/18 06:20:33;;;;;;;11.40;6.70;;;17.50;99.90;;;;;;4998313;28;20478;-68
2022/05/18 06:22:59;;;;;;;11.35;6.72;;;17.60;99.90;;;;;;5005065;28;20077;-68
2022/05/18 06:25:25;;;;;;;11.85;7.13;;;17.70;99.90;;;;;;4997177;28;20088;-68
2022/05/18 06:27:51;;;;;;;11.68;6.80;;;17.80;99.90;;;;;;5005193;28;20069;-68
2022/05/18 06:30:17;;;;;;;13.52;7.07;;;17.80;99.90;;;;;;5008644;28;20111;-68
2022/05/18 06:32:43;;;;;;;12.23;6.90;;;17.90;99.90;;;;;;4991324;28;20052;-68
2022/05/18 06:35:08;;;;;;;11.90;7.63;;;18.00;99.90;;;;;;5004242;28;20038;-68
2022/05/18 06:37:34;;;;;;;10.90;7.30;;;18.00;99.90;;;;;;5003860;28;20490;-68
2022/05/18 06:40:05;;;;;;;11.57;6.55;;;18.10;99.90;;;;;;5000940;28;20042;-68
2022/05/18 06:42:32;;;;;;;10.80;7.40;;;18.20;99.90;;;;;;5004137;28;20050;-68
2022/05/18 06:44:58;;;;;;;;;;;18.20;99.90;;;;;;5007803;28;20049;-68
2022/05/18 06:47:24;;;;;;;15.02;7.63;;;18.30;99.90;;;;;;5004933;28;19917;-68
2022/05/18 06:49:51;;;;;;;10.55;7.10;;;18.40;99.90;;;;;;4992070;28;20876;-68
2022/05/18 06:52:16;;;;;;;;;;;18.50;99.90;;;;;;5001149;28;20050;-68
2022/05/18 06:54:42;;;;;;;12.02;7.13;;;18.50;99.90;;;;;;5003246;28;19975;-68
2022/05/18 06:57:07;;;;;;;11.80;7.15;;;18.60;99.90;;;;;;5006858;28;20033;-68
2022/05/18 06:59:33;;;;;;;13.57;7.88;;;18.60;99.90;;;;;;5001473;28;20507;-68
2022/05/18 07:01:58;;;;;;;12.38;7.15;;;18.80;99.90;;;;;;5001924;28;20056;-68
2022/05/18 07:04:24;;;;;;;13.23;6.93;;;18.80;99.90;;;;;;5004204;28;20426;-68
2022/05/18 07:06:50;;;;;;;11.32;7.00;;;18.90;99.90;;;;;;5007564;28;20041;-68
2022/05/18 07:10:08;;;;;;;9.25;5.93;;;19.00;99.90;;;;;;5007985;23;20042;-84
2022/05/18 07:13:17;;;;;;;8.23;5.45;;;19.20;99.90;;;;;;5004206;28;20058;-83
2022/05/18 07:15:47;;;;;;;9.18;5.07;;;19.20;99.90;;;;;;5006273;28;20042;-83
2022/05/18 07:18:19;;;;;;;8.02;4.60;;;19.30;99.90;;;;;;4991427;28;20567;-84
2022/05/18 07:23:23;;;;;;;6.07;4.53;;;19.60;99.90;;;;;;4993418;28;20049;-65
2022/05/18 07:25:50;;;;;;;7.15;4.45;;;19.70;99.90;;;;;;5002690;28;20045;-65
2022/05/18 07:28:16;;;;;;;6.25;3.78;;;19.80;99.90;;;;;;5010101;28;20117;-66
2022/05/18 07:30:42;;;;;;;6.80;4.47;;;19.90;99.90;;;;;;5001502;28;20157;-65
2022/05/18 07:33:07;;;;;;;7.85;4.35;;;20.00;99.90;;;;;;4988894;28;20475;-65
2022/05/18 07:35:33;;;;;;;5.97;4.22;;;20.10;99.90;;;;;;4998966;28;20041;-66
2022/05/18 07:37:59;;;;;;;11.40;4.47;;;20.20;99.90;;;;;;4994822;28;20139;-65
2022/05/18 07:40:25;;;;;;;;;;;20.30;99.90;;;;;;4993292;28;20034;-65
2022/05/18 07:42:54;;;;;;;6.57;4.60;;;20.40;99.90;;;;;;4998277;28;20396;-65
2022/05/18 07:45:21;;;;;;;8.68;5.10;;;20.50;99.90;;;;;;4997411;28;20121;-65
2022/05/18 07:47:47;;;;;;;9.50;5.03;;;20.50;99.90;;;;;;5001064;28;20088;-66
2022/05/18 07:50:13;;;;;;;9.48;5.40;;;20.60;99.90;;;;;;5001923;28;20904;-65
2022/05/18 07:52:39;;;;;;;8.20;4.82;;;20.70;99.90;;;;;;4996778;28;20065;-65
2022/05/18 07:55:05;;;;;;;10.65;5.93;;;20.80;99.90;;;;;;4998807;28;20391;-65
2022/05/18 07:57:31;;;;;;;9.85;5.38;;;20.80;99.90;;;;;;4996061;28;20209;-65
2022/05/18 07:59:59;;;;;;;8.15;5.25;;;20.90;99.90;;;;;;5002412;28;20449;-65
2022/05/18 08:02:26;;;;;;;11.95;5.35;;;20.90;99.90;;;;;;5006558;28;20156;-65
2022/05/18 08:04:52;;;;;;;10.65;5.72;;;21.00;99.90;;;;;;5001509;28;20053;-65
2022/05/18 08:07:17;;;;;;;16.70;6.07;;;21.00;99.90;;;;;;5001184;28;20061;-65
2022/05/18 08:15:12;;;;;;;10.23;4.93;;;21.30;99.90;;;;;;4997274;28;20081;-65
2022/05/18 08:17:43;;;;;;;9.32;5.63;;;21.40;99.90;;;;;;4993462;28;20411;-65
2022/05/18 08:20:09;;;;;;;10.80;6.50;;;21.50;99.90;;;;;;4999303;28;20034;-65
2022/05/18 08:22:35;;;;;;;12.00;5.68;;;21.60;99.90;;;;;;5003561;28;20084;-65
2022/05/18 08:25:01;;;;;;;9.90;6.45;;;21.60;99.90;;;;;;4999170;28;20074;-65
2022/05/18 08:27:27;;;;;;;11.27;6.18;;;21.70;99.90;;;;;;5002054;28;20521;-65
2022/05/18 08:29:58;;;;;;;;;;;21.80;99.90;;;;;;5003181;28;20038;-65
2022/05/18 08:32:24;;;;;;;13.48;6.70;;;21.90;99.90;;;;;;5005029;28;19941;-65
2022/05/18 08:34:49;;;;;;;;;;;22.00;99.90;;;;;;4989856;28;20042;-65
2022/05/18 08:37:15;;;;;;;10.43;6.28;;;22.00;99.90;;;;;;5000952;28;19917;-65
2022/05/18 08:39:41;;;;;;;10.02;6.63;;;22.10;99.90;;;;;;4999465;28;20129;-65
2022/05/18 08:42:08;;;;;;;14.65;7.20;;;22.20;99.90;;;;;;4998138;28;20451;-65
2022/05/18 08:44:36;;;;;;;11.38;8.02;;;22.30;99.90;;;;;;4997565;28;20061;-66
2022/05/18 08:47:09;;;;;;;11.52;7.28;;;22.40;99.90;;;;;;5001048;28;20132;-66
2022/05/18 08:49:57;;;;;;;9.65;7.20;;;22.40;99.90;;;;;;4996168;28;20044;-65
2022/05/18 08:52:38;;;;;;;14.23;7.60;;;22.40;99.90;;;;;;4995981;28;20817;-65
2022/05/18 08:55:27;;;;;;;11.90;7.80;;;22.50;99.90;;;;;;5000369;28;20063;-65
2022/05/18 08:57:57;;;;;;;11.57;7.32;;;22.50;99.90;;;;;;5004132;28;20486;-66
2022/05/18 09:00:38;;;;;;;12.80;7.60;;;22.60;99.90;;;;;;5003679;28;20060;-66
2022/05/18 09:03:23;;;;;;;12.50;8.48;;;22.70;99.90;;;;;;5004037;28;20083;-66
2022/05/18 09:06:23;;;;;;;8.20;5.80;;;22.70;99.90;;;;;;4990719;28;20132;-65
2022/05/18 09:11:52;;;;;;;10.23;6.55;;;22.80;99.90;;;;;;5003047;28;20050;-66
2022/05/18 09:14:20;;;;;;;;;;;22.90;99.90;;;;;;4997688;28;20049;-66
2022/05/18 09:17:00;;;;;;;10.15;6.60;;;23.00;99.90;;;;;;5002584;28;19917;-66
2022/05/18 09:19:51;;;;;;;12.80;6.70;;;23.00;99.90;;;;;;4994171;28;20560;-65
2022/05/18 09:22:54;;;;;;;14.88;7.82;;;23.20;99.90;;;;;;4984708;28;20080;-65
2022/05/18 09:25:34;;;;;;;12.32;7.88;;;23.30;99.90;;;;;;4996533;28;20045;-65
2022/05/18 09:28:29;;;;;;;14.00;7.85;;;23.40;99.90;;;;;;5002404;28;20046;-65
2022/05/18 09:31:10;;;;;;;11.95;7.70;;;23.50;99.90;;;;;;4987244;28;20053;-65
2022/05/18 09:33:44;;;;;;;15.35;8.60;;;23.60;99.90;;;;;;4996396;28;20085;-65
2022/05/18 09:36:48;;;;;;;10.43;6.85;;;23.70;99.90;;;;;;4997571;28;20413;-65
2022/05/18 09:39:18;;;;;;;13.82;7.65;;;23.80;99.90;;;;;;4999262;28;20288;-66
2022/05/18 09:41:52;;;;;;;11.32;6.50;;;23.80;99.90;;;;;;5000623;28;20038;-65
2022/05/18 09:44:39;;;;;;;11.70;6.68;;;23.90;99.90;;;;;;4994895;28;20065;-66
2022/05/18 09:47:07;;;;;;;10.70;6.55;;;24.00;99.90;;;;;;4993646;28;20038;-65
2022/05/18 09:49:40;;;;;;;10.60;6.45;;;24.00;99.90;;;;;;4995730;28;20041;-66
2022/05/18 09:52:06;;;;;;;10.35;6.70;;;24.00;99.90;;;;;;4992797;28;20521;-65
2022/05/18 09:54:32;;;;;;;;;;;24.10;99.90;;;;;;4999259;28;20034;-66
2022/05/18 09:57:27;;;;;;;10.15;6.97;;;24.20;99.90;;;;;;5000663;28;19917;-65
2022/05/18 09:59:56;;;;;;;14.48;7.63;;;24.20;99.90;;;;;;4973355;28;20100;-66
2022/05/18 10:08:20;;;;;;;13.65;9.00;;;24.20;99.90;;;;;;4996206;28;20050;-65
2022/05/18 10:10:47;;;;;;;15.07;9.45;;;24.20;99.90;;;;;;5001241;28;20116;-65
2022/05/18 10:13:16;;;;;;;14.65;9.23;;;24.10;99.90;;;;;;5004812;28;20042;-65
2022/05/18 10:15:45;;;;;;;15.95;9.85;;;24.20;99.90;;;;;;5006766;28;20200;-66
2022/05/18 10:18:39;;;;;;;12.88;8.98;;;24.00;99.90;;;;;;4995446;28;20195;-66
2022/05/18 10:21:16;;;;;;;12.18;8.15;;;24.00;99.90;;;;;;5000934;28;20140;-65
2022/05/18 10:24:03;;;;;;;16.00;9.07;;;24.00;99.90;;;;;;5003042;28;20037;-65
2022/05/18 10:26:32;;;;;;;12.02;7.85;;;24.10;99.90;;;;;;4999591;28;20379;-65
2022/05/18 10:29:18;;;;;;;10.15;7.35;;;24.10;99.90;;;;;;4999124;28;20064;-65
2022/05/18 10:31:59;;;;;;;12.07;6.50;;;24.20;99.90;;;;;;4990613;28;20510;-65
2022/05/18 10:34:29;;;;;;;10.45;6.05;;;24.30;99.90;;;;;;4991298;28;20045;-66
2022/05/18 10:36:58;;;;;;;9.77;6.13;;;24.40;99.90;;;;;;4997973;28;20042;-65
2022/05/18 10:39:47;;;;;;;11.43;6.53;;;24.50;99.90;;;;;;4992236;28;20060;-65
2022/05/18 10:42:35;;;;;;;9.88;5.93;;;24.60;99.90;;;;;;4999598;28;20128;-66
2022/05/18 10:45:20;;;;;;;12.50;6.78;;;24.70;99.90;;;;;;4991450;28;20041;-65
2022/05/18 10:47:49;;;;;;;11.15;6.68;;;24.90;99.90;;;;;;4993106;28;20042;-65
2022/05/18 10:50:36;;;;;;;14.32;6.85;;;24.90;99.90;;;;;;4998703;28;20038;-66
2022/05/18 10:53:24;;;;;;;11.60;7.40;;;24.90;99.90;;;;;;5004324;28;20041;-66
2022/05/18 10:56:03;;;;;;;12.63;6.45;;;24.90;99.90;;;;;;4995092;28;20072;-68
2022/05/18 10:58:45;;;;;;;12.05;7.20;;;25.00;99.90;;;;;;4996672;28;20141;-65
2022/05/18 11:01:11;;;;;;;9.90;6.40;;;25.20;99.90;;;;;;4997776;28;20061;-66
2022/05/18 11:03:51;;;;;;;11.60;6.18;;;25.20;99.90;;;;;;4991960;28;20138;-66
2022/05/18 11:06:26;;;;;;;9.30;5.88;;;25.30;99.90;;;;;;4996616;28;20137;-66
2022/05/18 11:08:56;;;;;;;6.85;4.43;;;25.40;99.90;;;;;;4992056;28;20065;-66
2022/05/18 11:12:12;;;;;;;6.72;4.72;;;25.40;99.90;;;;;;5000339;28;20049;-65
2022/05/18 11:14:51;;;;;;;8.95;5.90;;;25.50;99.90;;;;;;4955369;28;20096;-66
2022/05/18 11:17:39;;;;;;;11.40;6.25;;;25.40;99.90;;;;;;4999830;28;20044;-66
2022/05/18 11:20:35;;;;;;;9.35;5.78;;;25.40;99.90;;;;;;4992120;28;20042;-66
2022/05/18 11:23:03;;;;;;;8.90;4.63;;;25.40;99.90;;;;;;5001263;28;20041;-66
2022/05/18 11:26:02;;;;;;;9.60;5.28;;;25.40;99.90;;;;;;4995265;28;20049;-66
2022/05/18 11:28:56;;;;;;;9.55;5.47;;;25.40;99.90;;;;;;5005779;28;20049;-66
2022/05/18 11:31:30;;;;;;;9.13;5.30;;;25.50;99.90;;;;;;5000138;28;20121;-66
2022/05/18 11:33:58;;;;;;;13.15;5.97;;;25.60;99.90;;;;;;4997667;28;20053;-66
2022/05/18 11:37:01;;;;;;;8.75;5.65;;;25.60;99.90;;;;;;4997775;28;20052;-66
2022/05/18 11:39:36;;;;;;;8.95;6.00;;;25.60;99.90;;;;;;5002595;28;20129;-65
2022/05/18 11:42:15;;;;;;;11.05;6.72;;;25.70;99.90;;;;;;4998762;28;20088;-66
2022/05/18 11:44:51;;;;;;;10.18;5.30;;;25.70;99.90;;;;;;5004238;28;20049;-66
2022/05/18 11:47:44;;;;;;;12.27;6.50;;;25.50;99.90;;;;;;4996837;28;20049;-66
2022/05/18 11:50:22;;;;;;;8.75;5.32;;;25.50;99.90;;;;;;5000463;28;20046;-66
2022/05/18 11:53:08;;;;;;;11.43;6.60;;;25.50;99.90;;;;;;4997886;28;20127;-66
2022/05/18 11:56:15;;;;;;;11.27;7.20;;;25.40;99.90;;;;;;5004922;28;20045;-66
2022/05/18 11:58:52;;;;;;;13.57;6.30;;;25.40;99.90;;;;;;4981429;28;20068;-66
2022/05/18 12:01:48;;;;;;;10.68;6.43;;;25.30;99.90;;;;;;4983230;28;20332;-66
2022/05/18 12:04:41;;;;;;;14.20;6.60;;;25.20;99.90;;;;;;4989980;28;20045;-66
2022/05/18 12:07:34;;;;;;;9.65;6.15;;;25.50;99.90;;;;;;5000592;28;20777;-66
2022/05/18 12:10:19;;;;;;;10.18;5.90;;;25.50;99.90;;;;;;4993612;28;20041;-66
2022/05/18 12:13:25;;;;;;;9.88;5.50;;;25.60;99.90;;;;;;4997543;28;20072;-66
2022/05/18 12:16:02;;;;;;;15.43;8.98;;;25.50;99.90;;;;;;4977293;28;20050;-66
2022/05/18 12:18:41;;;;;;;10.38;6.68;;;25.30;99.90;;;;;;4999069;28;20056;-66
2022/05/18 12:21:32;;;;;;;12.70;8.00;;;25.30;99.90;;;;;;4999096;28;20042;-66
2022/05/18 12:24:02;;;;;;;13.88;7.80;;;25.20;99.90;;;;;;5000359;28;20108;-66
2022/05/18 12:26:31;;;;;;;13.68;7.50;;;25.20;99.90;;;;;;5000964;28;20054;-66
2022/05/18 12:28:57;;;;;;;13.95;6.68;;;25.20;99.90;;;;;;5002217;28;20108;-66
2022/05/18 12:31:23;;;;;;;11.05;5.95;;;25.10;99.90;;;;;;4995644;28;20099;-66
2022/05/18 12:34:15;;;;;;;9.20;4.70;;;25.20;99.90;;;;;;4998067;28;20738;-66
2022/05/18 12:36:44;;;;;;;14.60;7.38;;;25.20;99.90;;;;;;5001697;28;20057;-66
2022/05/18 12:39:33;;;;;;;14.35;8.80;;;25.30;99.90;;;;;;5003234;28;20046;-66
2022/05/18 12:42:01;;;;;;;14.65;9.07;;;25.30;99.90;;;;;;5003775;28;20157;-66
2022/05/18 12:44:41;;;;;;;13.75;8.23;;;25.10;99.90;;;;;;4999553;28;20046;-66
2022/05/18 12:47:19;;;;;;;13.90;8.55;;;25.10;99.90;;;;;;4996711;28;20034;-66
2022/05/18 12:49:46;;;;;;;16.13;8.93;;;25.00;99.90;;;;;;5000284;28;20029;-66
2022/05/18 12:52:29;;;;;;;16.15;9.45;;;24.80;99.90;;;;;;4994738;28;20042;-66
2022/05/18 12:55:00;;;;;;;15.85;9.70;;;24.70;99.90;;;;;;5002991;28;20038;-66
2022/05/18 12:57:41;;;;;;;21.52;9.02;;;24.70;99.90;;;;;;5001803;28;20021;-65
2022/05/18 13:00:36;;;;;;;18.13;9.98;;;24.80;99.90;;;;;;5000542;28;20044;-66
2022/05/18 13:03:23;;;;;;;16.13;10.60;;;25.00;99.90;;;;;;4995442;28;20260;-66
2022/05/18 13:05:54;;;;;;;21.23;12.05;;;24.90;99.90;;;;;;4995786;28;20053;-66
2022/05/18 13:08:20;;;;;;;19.48;12.02;;;24.80;99.90;;;;;;4999636;28;20133;-67
2022/05/18 13:11:10;;;;;;;18.85;11.48;;;24.50;99.90;;;;;;4999298;28;20084;-65
2022/05/18 13:13:55;;;;;;;19.13;10.55;;;24.50;99.90;;;;;;5005450;28;20144;-66
2022/05/18 13:16:38;;;;;;;20.90;10.70;;;24.60;99.90;;;;;;4985606;28;20057;-67
2022/05/18 13:19:27;;;;;;;17.30;10.43;;;24.80;99.90;;;;;;4995930;28;20037;-66
2022/05/18 13:21:59;;;;;;;15.48;9.70;;;24.90;99.90;;;;;;5003167;28;20077;-66
2022/05/18 13:24:31;;;;;;;14.68;10.07;;;24.80;99.90;;;;;;5003379;28;20050;-66
2022/05/18 13:27:03;;;;;;;21.60;11.00;;;24.70;99.90;;;;;;5004964;28;20109;-66
2022/05/18 13:29:31;;;;;;;19.92;10.50;;;24.50;99.90;;;;;;5001405;28;20113;-66